createdAt,value
2018-06-13T00:00:03.290Z,95.41
2018-06-13T00:01:11.924Z,95.41
2018-06-13T00:02:20.573Z,95.41
2018-06-13T00:03:29.216Z,95.03
2018-06-13T00:04:38.125Z,94.93
2018-06-13T00:05:46.771Z,95.51
2018-06-13T00:06:55.418Z,94.93
2018-06-13T00:08:04.065Z,95.7
2018-06-13T00:09:12.970Z,94.93
2018-06-13T00:10:21.614Z,95.7
2018-06-13T00:11:30.265Z,95.79
2018-06-13T00:12:38.909Z,95.89
2018-06-13T00:13:47.554Z,95.51
2018-06-13T00:14:56.460Z,95.89
2018-06-13T00:16:05.369Z,95.98
2018-06-13T00:17:14.016Z,97.13
2018-06-13T00:18:22.715Z,96.66
2018-06-13T00:19:31.387Z,97.04
2018-06-13T00:20:39.946Z,97.33
2018-06-13T00:21:48.596Z,97.04
2018-06-13T00:22:57.240Z,97.13
2018-06-13T00:24:05.887Z,97.8
2018-06-13T00:25:15.048Z,97.61
2018-06-13T00:26:23.702Z,97.23
2018-06-13T00:27:32.613Z,96.66
2018-06-13T00:28:41.261Z,95.98
2018-06-13T00:29:49.896Z,96.56
2018-06-13T00:30:58.547Z,97.61
2018-06-13T00:32:07.196Z,96.94
2018-06-13T00:33:15.843Z,97.13
2018-06-13T00:34:24.761Z,97.04
2018-06-13T00:35:33.397Z,97.23
2018-06-13T00:36:42.070Z,97.13
2018-06-13T00:37:50.975Z,96.66
2018-06-13T00:38:59.628Z,96.66
2018-06-13T00:40:08.267Z,97.23
2018-06-13T00:41:16.916Z,96.66
2018-06-13T00:42:25.556Z,96.56
2018-06-13T00:43:35.000Z,96.84
2018-06-13T00:44:43.900Z,97.42
2018-06-13T00:45:52.546Z,97.04
2018-06-13T00:47:01.188Z,96.84
2018-06-13T00:48:09.843Z,96.47
2018-06-13T00:49:18.487Z,96.27
2018-06-13T00:50:27.498Z,97.13
2018-06-13T00:51:36.032Z,97.9
2018-06-13T00:52:44.677Z,97.13
2018-06-13T00:53:53.337Z,97.42
2018-06-13T00:55:01.977Z,97.71
2018-06-13T00:56:10.628Z,97.23
2018-06-13T00:57:19.264Z,97.42
2018-06-13T00:58:27.917Z,97.71
2018-06-13T00:59:36.558Z,97.99
2018-06-13T01:00:45.471Z,98.28
2018-06-13T01:01:54.107Z,97.61
2018-06-13T01:03:02.766Z,98.28
2018-06-13T01:04:11.411Z,98.28
2018-06-13T01:05:20.056Z,98.09
2018-06-13T01:06:28.955Z,98.09
2018-06-13T01:07:37.605Z,98.09
2018-06-13T01:08:46.520Z,97.8
2018-06-13T01:09:55.171Z,98.09
2018-06-13T01:11:03.816Z,97.99
2018-06-13T01:12:12.451Z,97.8
2018-06-13T01:13:21.099Z,98.09
2018-06-13T01:14:29.740Z,99.04
2018-06-13T01:15:38.403Z,98.09
2018-06-13T01:16:47.574Z,97.9
2018-06-13T01:17:56.490Z,97.99
2018-06-13T01:19:05.394Z,98.28
2018-06-13T01:20:14.052Z,98.18
2018-06-13T01:21:22.687Z,97.99
2018-06-13T01:22:31.333Z,97.8
2018-06-13T01:23:39.979Z,98.18
2018-06-13T01:24:48.887Z,98.18
2018-06-13T01:25:57.530Z,97.8
2018-06-13T01:27:06.173Z,97.99
2018-06-13T01:28:14.816Z,98.28
2018-06-13T01:29:23.626Z,97.8
2018-06-13T01:30:32.113Z,98.66
2018-06-13T01:31:40.766Z,98.75
2018-06-13T01:32:49.410Z,98.95
2018-06-13T01:33:58.054Z,97.99
2018-06-13T01:35:06.704Z,97.99
2018-06-13T01:36:15.350Z,97.8
2018-06-13T01:37:24.000Z,97.42
2018-06-13T01:38:32.637Z,97.8
2018-06-13T01:39:41.287Z,97.71
2018-06-13T01:40:49.930Z,97.9
2018-06-13T01:41:58.579Z,98.28
2018-06-13T01:43:07.217Z,97.8
2018-06-13T01:44:15.863Z,97.9
2018-06-13T01:45:24.508Z,98.09
2018-06-13T01:46:33.156Z,97.9
2018-06-13T01:47:41.805Z,97.99
2018-06-13T01:48:50.443Z,97.33
2018-06-13T01:49:59.096Z,97.9
2018-06-13T01:51:07.741Z,98.28
2018-06-13T01:52:16.386Z,97.99
2018-06-13T01:53:25.027Z,98.47
2018-06-13T01:54:33.670Z,98.18
2018-06-13T01:55:42.315Z,98.75
2018-06-13T01:56:50.965Z,98.23
2018-06-13T01:57:59.605Z,97.9
2018-06-13T01:59:08.254Z,97.99
2018-06-13T02:00:16.894Z,98.28
2018-06-13T02:01:25.544Z,98.61
2018-06-13T02:02:34.187Z,98.28
2018-06-13T02:03:42.831Z,97.99
2018-06-13T02:04:51.472Z,97.8
2018-06-13T02:06:00.120Z,98.09
2018-06-13T02:07:09.034Z,98.18
2018-06-13T02:08:17.680Z,98.23
2018-06-13T02:09:26.590Z,98.04
2018-06-13T02:10:35.228Z,98.71
2018-06-13T02:11:43.876Z,98.61
2018-06-13T02:12:52.523Z,98.52
2018-06-13T02:14:01.166Z,98.99
2018-06-13T02:15:09.806Z,98.8
2018-06-13T02:16:18.720Z,98.04
2018-06-13T02:17:27.364Z,98.61
2018-06-13T02:18:36.011Z,99.04
2018-06-13T02:19:44.917Z,98.99
2018-06-13T02:20:53.825Z,97.94
2018-06-13T02:22:02.475Z,98.13
2018-06-13T02:23:11.113Z,98.52
2018-06-13T02:24:19.755Z,98.04
2018-06-13T02:25:28.405Z,98.04
2018-06-13T02:26:37.054Z,98.52
2018-06-13T02:27:45.700Z,99.19
2018-06-13T02:28:54.340Z,98.71
2018-06-13T02:30:02.995Z,98.61
2018-06-13T02:31:11.902Z,98.23
2018-06-13T02:32:20.547Z,97.85
2018-06-13T02:33:29.190Z,97.85
2018-06-13T02:34:37.844Z,98.13
2018-06-13T02:35:46.753Z,97.75
2018-06-13T02:36:55.400Z,98.23
2018-06-13T02:38:04.052Z,98.13
2018-06-13T02:39:12.689Z,98.33
2018-06-13T02:40:21.603Z,98.13
2018-06-13T02:41:30.250Z,97.94
2018-06-13T02:42:38.902Z,97.94
2018-06-13T02:43:47.548Z,98.8
2018-06-13T02:44:56.199Z,98.52
2018-06-13T02:46:04.845Z,98.52
2018-06-13T02:47:14.024Z,98.71
2018-06-13T02:48:22.664Z,98.61
2018-06-13T02:49:31.313Z,98.52
2018-06-13T02:50:40.230Z,98.52
2018-06-13T02:51:49.403Z,98.61
2018-06-13T02:52:58.048Z,98.61
2018-06-13T02:54:07.218Z,97.94
2018-06-13T02:55:15.876Z,98.42
2018-06-13T02:56:24.531Z,98.9
2018-06-13T02:57:33.185Z,99.28
2018-06-13T02:58:42.377Z,98.99
2018-06-13T02:59:51.288Z,98.71
2018-06-13T03:01:00.379Z,98.71
2018-06-13T03:02:09.318Z,98.99
2018-06-13T03:03:18.323Z,98.61
2018-06-13T03:04:26.969Z,98.71
2018-06-13T03:05:35.609Z,98.9
2018-06-13T03:06:44.522Z,98.61
2018-06-13T03:07:53.434Z,98.8
2018-06-13T03:09:02.080Z,98.61
2018-06-13T03:10:10.990Z,98.71
2018-06-13T03:11:19.638Z,98.71
2018-06-13T03:12:28.286Z,98.8
2018-06-13T03:13:37.202Z,99.19
2018-06-13T03:14:45.847Z,99.38
2018-06-13T03:15:54.499Z,99.85
2018-06-13T03:17:03.155Z,99.28
2018-06-13T03:18:11.794Z,99.28
2018-06-13T03:19:20.451Z,99.48
2018-06-13T03:20:29.084Z,99.09
2018-06-13T03:21:37.735Z,99.48
2018-06-13T03:22:46.370Z,99.99
2018-06-13T03:23:55.029Z,99.95
2018-06-13T03:25:03.663Z,99.95
2018-06-13T03:26:12.314Z,99.99
2018-06-13T03:27:20.956Z,99.99
2018-06-13T03:28:29.611Z,99.85
2018-06-13T03:29:38.251Z,99.28
2018-06-13T03:30:46.916Z,99.19
2018-06-13T03:31:56.095Z,99.28
2018-06-13T03:33:05.027Z,99.99
2018-06-13T03:34:13.674Z,99.95
2018-06-13T03:35:22.324Z,99.99
2018-06-13T03:36:30.969Z,99.76
2018-06-13T03:37:39.610Z,99.76
2018-06-13T03:38:48.264Z,99.76
2018-06-13T03:39:56.904Z,99.57
2018-06-13T03:41:05.607Z,99.95
2018-06-13T03:42:14.187Z,99.99
2018-06-13T03:43:22.844Z,99.95
2018-06-13T03:44:31.481Z,99.99
2018-06-13T03:45:40.129Z,99.95
2018-06-13T03:46:48.767Z,99.99
2018-06-13T03:47:57.681Z,99.95
2018-06-13T03:49:06.587Z,99.99
2018-06-13T03:50:15.240Z,99.99
2018-06-13T03:51:24.143Z,99.95
2018-06-13T03:52:32.788Z,99.99
2018-06-13T03:53:41.438Z,99.95
2018-06-13T03:54:50.641Z,99.99
2018-06-13T03:55:59.289Z,99.99
2018-06-13T03:57:08.185Z,99.99
2018-06-13T03:58:16.833Z,99.99
2018-06-13T03:59:25.736Z,99.95
2018-06-13T04:00:34.388Z,99.99
2018-06-13T04:01:43.332Z,99.99
2018-06-13T04:02:51.935Z,99.99
2018-06-13T04:04:00.576Z,99.99
2018-06-13T04:05:09.229Z,99.99
2018-06-13T04:06:17.867Z,99.99
2018-06-13T04:07:26.513Z,99.99
2018-06-13T04:08:35.154Z,99.48
2018-06-13T04:09:43.816Z,99.57
2018-06-13T04:10:52.456Z,99.76
2018-06-13T04:12:01.095Z,99.38
2018-06-13T04:13:09.737Z,99.57
2018-06-13T04:14:18.647Z,99.99
2018-06-13T04:15:27.301Z,99.85
2018-06-13T04:16:35.941Z,99.99
2018-06-13T04:17:44.595Z,99.99
2018-06-13T04:18:53.495Z,99.95
2018-06-13T04:20:02.435Z,99.99
2018-06-13T04:21:11.079Z,99.99
2018-06-13T04:22:19.732Z,99.99
2018-06-13T04:23:28.363Z,99.99
2018-06-13T04:24:37.016Z,99.99
2018-06-13T04:25:45.659Z,99.99
2018-06-13T04:26:54.306Z,98.95
2018-06-13T04:28:02.941Z,98.52
2018-06-13T04:29:11.861Z,99.04
2018-06-13T04:30:20.512Z,98.8
2018-06-13T04:31:29.157Z,99.33
2018-06-13T04:32:37.828Z,99.24
2018-06-13T04:33:46.733Z,99.33
2018-06-13T04:34:55.383Z,99.04
2018-06-13T04:36:04.290Z,98.85
2018-06-13T04:37:12.947Z,98.57
2018-06-13T04:38:21.849Z,98.38
2018-06-13T04:39:30.492Z,98.66
2018-06-13T04:40:39.396Z,98.09
2018-06-13T04:41:48.051Z,97.8
2018-06-13T04:42:56.685Z,98.38
2018-06-13T04:44:05.600Z,97.71
2018-06-13T04:45:14.240Z,97.42
2018-06-13T04:46:22.895Z,97.42
2018-06-13T04:47:31.538Z,97.42
2018-06-13T04:48:40.178Z,97.66
2018-06-13T04:49:48.821Z,97.8
2018-06-13T04:50:57.463Z,97.42
2018-06-13T04:52:06.119Z,97.04
2018-06-13T04:53:14.758Z,97.33
2018-06-13T04:54:23.949Z,97.71
2018-06-13T04:55:32.587Z,97.23
2018-06-13T04:56:41.239Z,97.99
2018-06-13T04:57:49.884Z,97.61
2018-06-13T04:58:58.537Z,97.99
2018-06-13T05:00:07.173Z,97.99
2018-06-13T05:01:15.825Z,97.8
2018-06-13T05:02:24.468Z,97.23
2018-06-13T05:03:33.114Z,96.66
2018-06-13T05:04:42.015Z,97.04
2018-06-13T05:05:51.190Z,96.94
2018-06-13T05:06:59.841Z,97.23
2018-06-13T05:08:08.491Z,97.33
2018-06-13T05:09:17.136Z,97.23
2018-06-13T05:10:25.771Z,97.04
2018-06-13T05:11:34.414Z,96.56
2018-06-13T05:12:43.057Z,95.79
2018-06-13T05:13:51.969Z,96.18
2018-06-13T05:15:00.604Z,95.61
2018-06-13T05:16:09.255Z,96.08
2018-06-13T05:17:17.895Z,97.23
2018-06-13T05:18:26.548Z,97.04
2018-06-13T05:19:35.202Z,96.94
2018-06-13T05:20:43.839Z,96.27
2018-06-13T05:21:52.480Z,96.37
2018-06-13T05:23:01.131Z,95.7
2018-06-13T05:24:09.772Z,95.61
2018-06-13T05:25:18.416Z,95.7
2018-06-13T05:26:27.062Z,95.75
2018-06-13T05:27:35.717Z,95.65
2018-06-13T05:28:44.373Z,94.74
2018-06-13T05:29:53.273Z,94.7
2018-06-13T05:31:01.922Z,94.74
2018-06-13T05:32:10.557Z,94.6
2018-06-13T05:33:19.207Z,93.64
2018-06-13T05:34:27.898Z,94.5
2018-06-13T05:35:36.502Z,94.41
2018-06-13T05:36:45.143Z,94.89
2018-06-13T05:37:53.793Z,94.79
2018-06-13T05:39:02.435Z,94.6
2018-06-13T05:40:11.085Z,94.21
2018-06-13T05:41:19.991Z,94.5
2018-06-13T05:42:28.638Z,93.84
2018-06-13T05:43:37.285Z,94.7
2018-06-13T05:44:45.935Z,94.31
2018-06-13T05:45:54.847Z,94.5
2018-06-13T05:47:03.753Z,94.41
2018-06-13T05:48:12.398Z,94.7
2018-06-13T05:49:21.049Z,94.41
2018-06-13T05:50:29.696Z,94.21
2018-06-13T05:51:38.338Z,94.89
2018-06-13T05:52:46.983Z,94.79
2018-06-13T05:53:55.628Z,95.07
2018-06-13T05:55:04.287Z,95.36
2018-06-13T05:56:13.194Z,95.17
2018-06-13T05:57:21.841Z,95.07
2018-06-13T05:58:30.515Z,94.79
2018-06-13T05:59:39.168Z,95.07
2018-06-13T06:00:48.077Z,94.79
2018-06-13T06:01:56.724Z,95.51
2018-06-13T06:03:05.365Z,95.27
2018-06-13T06:04:14.010Z,95.46
2018-06-13T06:05:22.660Z,94.79
2018-06-13T06:06:31.307Z,94.6
2018-06-13T06:07:40.215Z,94.6
2018-06-13T06:08:48.852Z,94.89
2018-06-13T06:09:57.504Z,94.31
2018-06-13T06:11:06.144Z,94.12
2018-06-13T06:12:14.790Z,94.5
2018-06-13T06:13:23.431Z,94.6
2018-06-13T06:14:32.081Z,94.41
2018-06-13T06:15:40.724Z,93.45
2018-06-13T06:16:49.370Z,93.93
2018-06-13T06:17:58.020Z,92.69
2018-06-13T06:19:06.939Z,92.69
2018-06-13T06:20:15.581Z,92.97
2018-06-13T06:21:24.242Z,93.26
2018-06-13T06:22:32.885Z,93.55
2018-06-13T06:23:41.576Z,93.16
2018-06-13T06:24:50.453Z,92.97
2018-06-13T06:25:59.103Z,93.45
2018-06-13T06:27:07.999Z,93.02
2018-06-13T06:28:16.649Z,92.44
2018-06-13T06:29:25.295Z,92.69
2018-06-13T06:30:33.946Z,92.63
2018-06-13T06:31:42.888Z,92.54
2018-06-13T06:32:51.800Z,93.12
2018-06-13T06:34:00.442Z,92.54
2018-06-13T06:35:09.360Z,91.97
2018-06-13T06:36:18.003Z,91.68
2018-06-13T06:37:26.649Z,92.25
2018-06-13T06:38:35.295Z,91.87
2018-06-13T06:39:43.947Z,91.11
2018-06-13T06:40:52.873Z,91.11
2018-06-13T06:42:01.777Z,91.3
2018-06-13T06:43:10.426Z,91.11
2018-06-13T06:44:19.089Z,91.3
2018-06-13T06:45:27.739Z,91.3
2018-06-13T06:46:36.382Z,91.39
2018-06-13T06:47:45.029Z,91.3
2018-06-13T06:48:53.674Z,90.67
2018-06-13T06:50:02.599Z,90.19
2018-06-13T06:51:11.247Z,90.09
2018-06-13T06:52:19.896Z,90.48
2018-06-13T06:53:28.540Z,90.58
2018-06-13T06:54:37.190Z,90.19
2018-06-13T06:55:45.836Z,88.7
2018-06-13T06:56:54.482Z,88.8
2018-06-13T06:58:03.130Z,89.18
2018-06-13T06:59:11.768Z,87.17
2018-06-13T07:00:20.417Z,87.17
2018-06-13T07:01:29.067Z,87.65
2018-06-13T07:02:37.722Z,87.37
2018-06-13T07:03:46.978Z,87.17
2018-06-13T07:04:55.625Z,85.83
2018-06-13T07:06:04.267Z,84.97
2018-06-13T07:07:13.181Z,85.16
2018-06-13T07:08:21.823Z,85.54
2018-06-13T07:09:30.745Z,86.6
2018-06-13T07:10:39.391Z,86.31
2018-06-13T07:11:48.039Z,84.78
2018-06-13T07:12:56.677Z,84.97
2018-06-13T07:14:05.589Z,84.15
2018-06-13T07:15:14.237Z,84.63
2018-06-13T07:16:22.888Z,85.49
2018-06-13T07:17:31.799Z,86.25
2018-06-13T07:18:40.437Z,85.01
2018-06-13T07:19:49.088Z,85.11
2018-06-13T07:20:57.729Z,84.15
2018-06-13T07:22:06.384Z,83.86
2018-06-13T07:23:15.287Z,85.01
2018-06-13T07:24:23.938Z,84.91
2018-06-13T07:25:32.581Z,83.58
2018-06-13T07:26:41.238Z,83.95
2018-06-13T07:27:49.877Z,83.48
2018-06-13T07:28:58.788Z,83.38
2018-06-13T07:30:07.435Z,82.9
2018-06-13T07:31:16.363Z,84.25
2018-06-13T07:32:25.007Z,84.91
2018-06-13T07:33:33.675Z,84.05
2018-06-13T07:34:42.315Z,84.25
2018-06-13T07:35:50.969Z,84.44
2018-06-13T07:36:59.624Z,84.82
2018-06-13T07:38:08.268Z,83.58
2018-06-13T07:39:16.923Z,83
2018-06-13T07:40:25.559Z,83.48
2018-06-13T07:41:34.481Z,84.82
2018-06-13T07:42:43.121Z,85.16
2018-06-13T07:43:51.776Z,86.12
2018-06-13T07:45:00.413Z,85.49
2018-06-13T07:46:09.341Z,84.58
2018-06-13T07:47:17.987Z,85.16
2018-06-13T07:48:26.643Z,85.64
2018-06-13T07:49:35.310Z,86.79
2018-06-13T07:50:43.929Z,87.08
2018-06-13T07:51:52.578Z,85.83
2018-06-13T07:53:01.231Z,86.79
2018-06-13T07:54:09.880Z,85.83
2018-06-13T07:55:18.528Z,86.02
2018-06-13T07:56:27.450Z,86.5
2018-06-13T07:57:36.092Z,86.21
2018-06-13T07:58:44.748Z,84.72
2018-06-13T07:59:53.385Z,85.01
2018-06-13T08:01:02.037Z,85.78
2018-06-13T08:02:10.700Z,84.63
2018-06-13T08:03:19.649Z,85.01
2018-06-13T08:04:28.287Z,85.49
2018-06-13T08:05:37.206Z,85.68
2018-06-13T08:06:45.850Z,85.68
2018-06-13T08:07:54.772Z,85.58
2018-06-13T08:09:03.691Z,83.29
2018-06-13T08:10:12.334Z,84.39
2018-06-13T08:11:20.978Z,84.58
2018-06-13T08:12:29.625Z,85.06
2018-06-13T08:13:38.549Z,86.31
2018-06-13T08:14:47.196Z,86.27
2018-06-13T08:15:55.846Z,87.23
2018-06-13T08:17:04.490Z,88.09
2018-06-13T08:18:13.141Z,89.04
2018-06-13T08:19:21.790Z,88.76
2018-06-13T08:20:30.436Z,88.18
2018-06-13T08:21:39.078Z,87.9
2018-06-13T08:22:47.730Z,89.43
2018-06-13T08:23:56.377Z,89.23
2018-06-13T08:25:05.298Z,90.19
2018-06-13T08:26:13.970Z,90.77
2018-06-13T08:27:22.619Z,91.25
2018-06-13T08:28:31.264Z,91.15
2018-06-13T08:29:39.914Z,91.72
2018-06-13T08:30:48.621Z,90.48
2018-06-13T08:31:57.407Z,91.34
2018-06-13T08:33:06.054Z,90.48
2018-06-13T08:34:14.702Z,90.48
2018-06-13T08:35:23.625Z,90.67
2018-06-13T08:36:32.273Z,90.58
2018-06-13T08:37:40.919Z,90.09
2018-06-13T08:38:49.566Z,90.72
2018-06-13T08:39:58.222Z,90.48
2018-06-13T08:41:06.890Z,90.14
2018-06-13T08:42:15.600Z,89.57
2018-06-13T08:43:24.520Z,88.9
2018-06-13T08:44:33.172Z,89.57
2018-06-13T08:45:41.908Z,90.14
2018-06-13T08:46:50.912Z,89.81
2018-06-13T08:47:59.954Z,89.72
2018-06-13T08:49:08.839Z,90.29
2018-06-13T08:50:17.489Z,90.09
2018-06-13T08:51:26.147Z,90.29
2018-06-13T08:52:35.058Z,90.09
2018-06-13T08:53:43.700Z,88.66
2018-06-13T08:54:52.351Z,90.58
2018-06-13T08:56:01.011Z,90.39
2018-06-13T08:57:09.660Z,90.23
2018-06-13T08:58:18.481Z,88.13
2018-06-13T08:59:27.224Z,86.6
2018-06-13T09:00:35.868Z,86.12
2018-06-13T09:01:44.515Z,85.35
2018-06-13T09:02:53.424Z,85.11
2018-06-13T09:04:02.131Z,82.32
2018-06-13T09:05:11.212Z,83.09
2018-06-13T09:06:20.067Z,82.75
2018-06-13T09:07:28.842Z,82.08
2018-06-13T09:08:37.693Z,79.3
2018-06-13T09:09:46.481Z,80.83
2018-06-13T09:10:55.195Z,81.89
2018-06-13T09:12:03.872Z,82.08
2018-06-13T09:13:13.104Z,80.55
2018-06-13T09:14:21.756Z,79.78
2018-06-13T09:15:30.402Z,80.74
2018-06-13T09:16:39.062Z,78.25
2018-06-13T09:17:47.699Z,76.71
2018-06-13T09:18:56.348Z,77.09
2018-06-13T09:20:04.994Z,77.09
2018-06-13T09:21:13.652Z,77
2018-06-13T09:22:22.643Z,77.71
2018-06-13T09:23:31.599Z,77.13
2018-06-13T09:24:40.242Z,75.12
2018-06-13T09:25:48.887Z,75.89
2018-06-13T09:26:57.544Z,75.5
2018-06-13T09:28:06.451Z,75.54
2018-06-13T09:29:15.103Z,74.01
2018-06-13T09:30:23.742Z,72.75
2018-06-13T09:31:32.667Z,71.89
2018-06-13T09:32:41.596Z,72.37
2018-06-13T09:33:50.247Z,74.19
2018-06-13T09:34:59.147Z,73.72
2018-06-13T09:36:08.073Z,73.62
2018-06-13T09:37:16.729Z,73.62
2018-06-13T09:38:25.363Z,72.75
2018-06-13T09:39:34.003Z,72.75
2018-06-13T09:40:42.652Z,72.66
2018-06-13T09:41:51.304Z,71.89
2018-06-13T09:42:59.957Z,72.22
2018-06-13T09:44:08.608Z,70.39
2018-06-13T09:45:17.247Z,71.45
2018-06-13T09:46:25.901Z,72.02
2018-06-13T09:47:34.546Z,72.41
2018-06-13T09:48:43.203Z,72.89
2018-06-13T09:49:51.841Z,70.87
2018-06-13T09:51:00.493Z,72.02
2018-06-13T09:52:09.144Z,71.93
2018-06-13T09:53:18.064Z,71.45
2018-06-13T09:54:26.753Z,70.68
2018-06-13T09:55:35.353Z,72.5
2018-06-13T09:56:44.079Z,72.41
2018-06-13T09:57:52.667Z,71.06
2018-06-13T09:59:01.310Z,71.25
2018-06-13T10:00:09.955Z,72.41
2018-06-13T10:01:18.602Z,71.8
2018-06-13T10:02:27.247Z,73.62
2018-06-13T10:03:35.907Z,72.37
2018-06-13T10:04:44.947Z,72.28
2018-06-13T10:05:53.943Z,72.12
2018-06-13T10:07:02.581Z,71.83
2018-06-13T10:08:11.241Z,71.35
2018-06-13T10:09:19.880Z,71.93
2018-06-13T10:10:28.532Z,71.45
2018-06-13T10:11:37.182Z,70.52
2018-06-13T10:12:45.823Z,70.49
2018-06-13T10:13:54.476Z,71.25
2018-06-13T10:15:03.388Z,71.25
2018-06-13T10:16:12.045Z,71.35
2018-06-13T10:17:20.693Z,71.12
2018-06-13T10:18:29.338Z,71.8
2018-06-13T10:19:37.986Z,70.87
2018-06-13T10:20:46.894Z,71.06
2018-06-13T10:21:55.821Z,71.16
2018-06-13T10:23:04.474Z,71.93
2018-06-13T10:24:13.122Z,71.31
2018-06-13T10:25:22.066Z,71.93
2018-06-13T10:26:31.640Z,72.02
2018-06-13T10:27:40.519Z,71.55
2018-06-13T10:28:49.225Z,71.93
2018-06-13T10:29:57.809Z,71.73
2018-06-13T10:31:06.468Z,71.35
2018-06-13T10:32:15.116Z,69.59
2018-06-13T10:33:24.034Z,72.37
2018-06-13T10:34:32.675Z,72.47
2018-06-13T10:35:41.325Z,71.89
2018-06-13T10:36:49.982Z,71.31
2018-06-13T10:37:58.633Z,72.47
2018-06-13T10:39:07.285Z,73.43
2018-06-13T10:40:15.922Z,73.81
2018-06-13T10:41:24.580Z,74.29
2018-06-13T10:42:33.485Z,71.22
2018-06-13T10:43:42.144Z,72.75
2018-06-13T10:44:50.788Z,72.47
2018-06-13T10:45:59.700Z,72.75
2018-06-13T10:47:08.347Z,73.75
2018-06-13T10:48:17.002Z,71.35
2018-06-13T10:49:25.641Z,70.29
2018-06-13T10:50:34.293Z,70.58
2018-06-13T10:51:42.944Z,72.69
2018-06-13T10:52:51.605Z,69.66
2018-06-13T10:54:00.257Z,70.97
2018-06-13T10:55:09.166Z,71.73
2018-06-13T10:56:17.815Z,70.43
2018-06-13T10:57:26.456Z,70.33
2018-06-13T10:58:35.116Z,69.69
2018-06-13T10:59:43.762Z,68.73
2018-06-13T11:00:52.684Z,67.68
2018-06-13T11:02:01.325Z,67.9
2018-06-13T11:03:09.985Z,66.27
2018-06-13T11:04:18.632Z,66.65
2018-06-13T11:05:27.559Z,67.48
2018-06-13T11:06:36.466Z,68.54
2018-06-13T11:07:45.130Z,69.37
2018-06-13T11:08:53.776Z,69.37
2018-06-13T11:10:02.426Z,70.43
2018-06-13T11:11:11.341Z,69.72
2018-06-13T11:12:20.300Z,69.34
2018-06-13T11:13:28.910Z,70.64
2018-06-13T11:14:37.563Z,71.7
2018-06-13T11:15:46.213Z,71.7
2018-06-13T11:16:54.857Z,73.33
2018-06-13T11:18:03.504Z,72.95
2018-06-13T11:19:12.152Z,73.33
2018-06-13T11:20:20.862Z,74.68
2018-06-13T11:21:29.449Z,74.19
2018-06-13T11:22:38.361Z,71.7
2018-06-13T11:23:47.011Z,71.12
2018-06-13T11:24:55.661Z,72.37
2018-06-13T11:26:04.870Z,72.75
2018-06-13T11:27:13.491Z,73.72
2018-06-13T11:28:22.137Z,73.33
2018-06-13T11:29:30.790Z,74.48
2018-06-13T11:30:39.706Z,75.06
2018-06-13T11:31:48.355Z,74.01
2018-06-13T11:32:57.262Z,72.56
2018-06-13T11:34:05.910Z,72.28
2018-06-13T11:35:14.836Z,72.18
2018-06-13T11:36:23.474Z,71.31
2018-06-13T11:37:32.123Z,71.41
2018-06-13T11:38:40.767Z,72.75
2018-06-13T11:39:49.421Z,73.14
2018-06-13T11:40:58.067Z,72.37
2018-06-13T11:42:06.717Z,71.89
2018-06-13T11:43:15.362Z,71.51
2018-06-13T11:44:24.018Z,71.35
2018-06-13T11:45:33.190Z,72.08
2018-06-13T11:46:41.841Z,72.66
2018-06-13T11:47:50.755Z,71.55
2018-06-13T11:48:59.405Z,70.39
2018-06-13T11:50:08.318Z,71.93
2018-06-13T11:51:16.968Z,72.41
2018-06-13T11:52:25.901Z,70.2
2018-06-13T11:53:34.582Z,72.34
2018-06-13T11:54:43.193Z,71.87
2018-06-13T11:55:51.844Z,72.06
2018-06-13T11:57:00.498Z,70.23
2018-06-13T11:58:09.143Z,69.31
2018-06-13T11:59:17.792Z,65.27
2018-06-13T12:00:26.488Z,65.27
2018-06-13T12:01:35.095Z,66.49
2018-06-13T12:02:43.743Z,67.16
2018-06-13T12:03:52.393Z,65.14
2018-06-13T12:05:01.051Z,64.98
2018-06-13T12:06:10.339Z,64.69
2018-06-13T12:07:18.946Z,65.17
2018-06-13T12:08:27.596Z,63.86
2018-06-13T12:09:36.248Z,64.25
2018-06-13T12:10:45.172Z,62.51
2018-06-13T12:11:53.827Z,63.67
2018-06-13T12:13:02.481Z,64.92
2018-06-13T12:14:11.391Z,67.29
2018-06-13T12:15:20.050Z,68.06
2018-06-13T12:16:28.696Z,68.73
2018-06-13T12:17:37.350Z,65.56
2018-06-13T12:18:45.995Z,65.66
2018-06-13T12:19:54.653Z,69.02
2018-06-13T12:21:03.293Z,67.86
2018-06-13T12:22:11.943Z,66.33
2018-06-13T12:23:20.590Z,66.23
2018-06-13T12:24:29.248Z,65.08
2018-06-13T12:25:37.896Z,65.43
2018-06-13T12:26:46.541Z,64.56
2018-06-13T12:27:55.455Z,66.33
2018-06-13T12:29:04.102Z,66.61
2018-06-13T12:30:13.024Z,65.66
2018-06-13T12:31:21.930Z,64.12
2018-06-13T12:32:30.585Z,65.75
2018-06-13T12:33:39.484Z,63.83
2018-06-13T12:34:48.144Z,64.31
2018-06-13T12:35:56.790Z,64.79
2018-06-13T12:37:05.445Z,63.76
2018-06-13T12:38:14.085Z,65.2
2018-06-13T12:39:22.746Z,67.61
2018-06-13T12:40:31.390Z,67.99
2018-06-13T12:41:40.045Z,67.22
2018-06-13T12:42:48.691Z,66.27
2018-06-13T12:43:57.346Z,69.44
2018-06-13T12:45:06.002Z,69.24
2018-06-13T12:46:14.657Z,65.94
2018-06-13T12:47:23.574Z,68.25
2018-06-13T12:48:32.218Z,69.37
2018-06-13T12:49:40.874Z,68.79
2018-06-13T12:50:49.573Z,70.04
2018-06-13T12:51:58.177Z,70.04
2018-06-13T12:53:06.817Z,68.98
2018-06-13T12:54:15.470Z,68.41
2018-06-13T12:55:24.116Z,68.31
2018-06-13T12:56:33.039Z,69.27
2018-06-13T12:57:41.682Z,68.89
2018-06-13T12:58:50.340Z,69.66
2018-06-13T12:59:59.342Z,70.04
2018-06-13T13:01:07.999Z,69.27
2018-06-13T13:02:16.653Z,67.83
2018-06-13T13:03:25.295Z,67.96
2018-06-13T13:04:33.953Z,68.73
2018-06-13T13:05:42.590Z,66.91
2018-06-13T13:06:51.254Z,64.98
2018-06-13T13:07:59.907Z,63.79
2018-06-13T13:09:09.074Z,65.75
2018-06-13T13:10:17.724Z,65.75
2018-06-13T13:11:26.642Z,65.84
2018-06-13T13:12:35.294Z,63.64
2018-06-13T13:13:43.944Z,62.58
2018-06-13T13:14:52.591Z,63.38
2018-06-13T13:16:01.253Z,62.71
2018-06-13T13:17:09.898Z,63.73
2018-06-13T13:18:18.817Z,61.65
2018-06-13T13:19:27.463Z,63.38
2018-06-13T13:20:36.112Z,61.55
2018-06-13T13:21:44.761Z,63.18
2018-06-13T13:22:53.413Z,62.03
2018-06-13T13:24:02.339Z,63.22
2018-06-13T13:25:11.251Z,60.33
2018-06-13T13:26:19.900Z,59.17
2018-06-13T13:27:28.552Z,59.75
2018-06-13T13:28:37.206Z,60.33
2018-06-13T13:29:46.115Z,61.29
2018-06-13T13:30:54.763Z,62.61
2018-06-13T13:32:03.414Z,61.97
2018-06-13T13:33:12.068Z,61.49
2018-06-13T13:34:20.714Z,61.49
2018-06-13T13:35:29.366Z,62.41
2018-06-13T13:36:38.016Z,62.61
2018-06-13T13:37:46.669Z,62.99
2018-06-13T13:38:55.318Z,64.25
2018-06-13T13:40:03.973Z,62.71
2018-06-13T13:41:12.882Z,61.46
2018-06-13T13:42:21.529Z,62.61
2018-06-13T13:43:30.450Z,62.99
2018-06-13T13:44:39.098Z,64.34
2018-06-13T13:45:47.861Z,63.86
2018-06-13T13:46:56.395Z,62.8
2018-06-13T13:48:05.052Z,63.18
2018-06-13T13:49:13.702Z,61.55
2018-06-13T13:50:22.355Z,62.41
2018-06-13T13:51:31.001Z,62.77
2018-06-13T13:52:39.662Z,61.43
2018-06-13T13:53:48.309Z,62.96
2018-06-13T13:54:56.962Z,63.73
2018-06-13T13:56:05.607Z,64.6
2018-06-13T13:57:14.260Z,65.27
2018-06-13T13:58:22.912Z,65.94
2018-06-13T13:59:31.564Z,65.4
2018-06-13T14:00:40.220Z,63.86
2018-06-13T14:01:48.866Z,62.13
2018-06-13T14:02:57.515Z,62.13
2018-06-13T14:04:06.167Z,62.71
2018-06-13T14:05:14.822Z,62.61
2018-06-13T14:06:23.471Z,62.99
2018-06-13T14:07:32.122Z,65.75
2018-06-13T14:08:40.771Z,64.02
2018-06-13T14:09:49.415Z,65.66
2018-06-13T14:10:58.335Z,65.17
2018-06-13T14:12:06.984Z,64.34
2018-06-13T14:13:15.636Z,62.41
2018-06-13T14:14:24.283Z,62.99
2018-06-13T14:15:32.936Z,62.61
2018-06-13T14:16:41.588Z,60.78
2018-06-13T14:17:50.239Z,61.94
2018-06-13T14:18:58.889Z,61.55
2018-06-13T14:20:07.535Z,60.49
2018-06-13T14:21:16.185Z,61.74
2018-06-13T14:22:24.925Z,62.71
2018-06-13T14:23:33.492Z,62.41
2018-06-13T14:24:42.141Z,62.61
2018-06-13T14:25:50.787Z,62.99
2018-06-13T14:26:59.705Z,65.2
2018-06-13T14:28:08.885Z,63.67
2018-06-13T14:29:17.536Z,63.09
2018-06-13T14:30:26.183Z,64.05
2018-06-13T14:31:34.834Z,63.18
2018-06-13T14:32:43.487Z,61.36
2018-06-13T14:33:52.137Z,61.84
2018-06-13T14:35:00.789Z,61.39
2018-06-13T14:36:09.967Z,61.74
2018-06-13T14:37:19.239Z,62.51
2018-06-13T14:38:27.860Z,64.34
2018-06-13T14:39:36.508Z,65.97
2018-06-13T14:40:45.159Z,62.41
2018-06-13T14:41:53.811Z,64.25
2018-06-13T14:43:02.459Z,67.58
2018-06-13T14:44:11.127Z,65.17
2018-06-13T14:45:19.760Z,65.08
2018-06-13T14:46:28.408Z,64.69
2018-06-13T14:47:37.062Z,65.94